Time,TemperatureF,DewpointF,PressureIn,WindDirection,WindDirectionDegrees,WindSpeedMPH,WindSpeedGustMPH,Humidity,HourlyPrecipIn,Conditions,Clouds,dailyrainin,SoftwareType,DateUTC
2013-01-09 00:02:00,37.0,31.0,-100.00,SSW,200,14.0,23.0,78,0.00,,,0.00,,2013-01-09 06:02:00,
2013-01-09 00:12:00,37.0,31.0,-100.00,SSW,200,14.0,23.0,78,0.00,,,0.00,,2013-01-09 06:12:00,
2013-01-09 00:22:00,37.0,31.0,-100.00,SSW,200,14.0,23.0,78,0.00,,,0.00,,2013-01-09 06:22:00,
2013-01-09 00:52:00,36.0,30.0,-100.00,SSW,201,12.0,20.0,80,0.00,,,0.00,,2013-01-09 06:52:00,
2013-01-09 01:02:00,36.0,30.0,-100.00,SSW,201,12.0,20.0,80,0.00,,,0.00,,2013-01-09 07:02:00,
2013-01-09 01:12:00,36.0,30.0,-100.00,SSW,201,12.0,20.0,80,0.00,,,0.00,,2013-01-09 07:12:00,
2013-01-09 01:22:00,36.0,30.0,-100.00,SSW,201,12.0,20.0,80,0.00,,,0.00,,2013-01-09 07:22:00,
2013-01-09 01:52:00,37.0,31.0,-100.00,SW,222,10.0,19.0,79,0.00,,,0.00,,2013-01-09 07:52:00,
2013-01-09 02:02:00,37.0,31.0,-100.00,SW,222,10.0,19.0,79,0.00,,,0.00,,2013-01-09 08:02:00,
2013-01-09 02:12:00,37.0,31.0,-100.00,SW,222,10.0,19.0,79,0.00,,,0.00,,2013-01-09 08:12:00,
2013-01-09 02:22:00,37.0,31.0,-100.00,SW,222,10.0,19.0,79,0.00,,,0.00,,2013-01-09 08:22:00,
2013-01-09 02:53:00,36.0,31.0,-100.00,SW,230,8.0,17.0,81,0.00,,,0.00,,2013-01-09 08:53:00,
2013-01-09 03:02:00,36.0,31.0,-100.00,SW,230,8.0,17.0,81,0.00,,,0.00,,2013-01-09 09:02:00,
2013-01-09 03:12:00,36.0,31.0,-100.00,SW,230,8.0,17.0,81,0.00,,,0.00,,2013-01-09 09:12:00,
2013-01-09 03:22:00,36.0,31.0,-100.00,SW,230,8.0,17.0,81,0.00,,,0.00,,2013-01-09 09:22:00,
2013-01-09 03:53:00,35.0,31.0,-100.00,West,265,9.0,15.0,85,0.00,,,0.00,,2013-01-09 09:53:00,
2013-01-09 04:02:00,35.0,31.0,-100.00,West,265,9.0,15.0,85,0.00,,,0.00,,2013-01-09 10:02:00,
2013-01-09 04:12:00,35.0,31.0,-100.00,West,265,9.0,15.0,85,0.00,,,0.00,,2013-01-09 10:12:00,
2013-01-09 04:22:00,35.0,31.0,-100.00,West,265,9.0,15.0,85,0.00,,,0.00,,2013-01-09 10:22:00,
2013-01-09 04:52:00,33.0,29.0,-100.00,West,273,14.0,26.0,84,0.00,,,0.00,,2013-01-09 10:52:00,
2013-01-09 05:02:00,33.0,29.0,-100.00,West,273,14.0,26.0,84,0.00,,,0.00,,2013-01-09 11:02:00,
2013-01-09 05:12:00,33.0,29.0,-100.00,West,273,14.0,26.0,84,0.00,,,0.00,,2013-01-09 11:12:00,
2013-01-09 05:22:00,33.0,29.0,-100.00,West,273,14.0,26.0,84,0.00,,,0.00,,2013-01-09 11:22:00,
2013-01-09 05:53:00,31.0,28.0,-100.00,WSW,250,9.0,17.0,87,0.00,,,0.00,,2013-01-09 11:53:00,
2013-01-09 06:03:00,31.0,28.0,-100.00,WSW,250,9.0,17.0,87,0.00,,,0.00,,2013-01-09 12:03:00,
2013-01-09 06:12:00,31.0,28.0,-100.00,WSW,250,9.0,17.0,87,0.00,,,0.00,,2013-01-09 12:12:00,
2013-01-09 06:23:00,31.0,28.0,-100.00,WSW,250,9.0,17.0,87,0.00,,,0.00,,2013-01-09 12:23:00,
2013-01-09 06:53:00,30.0,27.0,-100.00,WSW,246,8.0,13.0,88,0.00,,,0.00,,2013-01-09 12:53:00,
2013-01-09 07:03:00,30.0,27.0,-100.00,WSW,246,8.0,13.0,88,0.00,,,0.00,,2013-01-09 13:03:00,
2013-01-09 07:12:00,30.0,27.0,-100.00,WSW,246,8.0,13.0,88,0.00,,,0.00,,2013-01-09 13:12:00,
2013-01-09 07:22:00,30.0,27.0,-100.00,WSW,246,8.0,13.0,88,0.00,,,0.00,,2013-01-09 13:22:00,
2013-01-09 07:53:00,29.0,26.0,-100.00,SW,225,7.0,13.0,87,0.00,,,0.00,,2013-01-09 13:53:00,
2013-01-09 08:03:00,29.0,26.0,-100.00,SW,225,7.0,13.0,87,0.00,,,0.00,,2013-01-09 14:03:00,
2013-01-09 08:12:00,29.0,26.0,-100.00,SW,225,7.0,13.0,87,0.00,,,0.00,,2013-01-09 14:12:00,
2013-01-09 08:22:00,29.0,26.0,-100.00,SW,225,7.0,13.0,87,0.00,,,0.00,,2013-01-09 14:22:00,
2013-01-09 08:53:00,31.0,26.0,-100.00,WSW,242,13.0,18.0,81,0.00,,,0.00,,2013-01-09 14:53:00,
2013-01-09 09:03:00,31.0,26.0,-100.00,WSW,242,13.0,18.0,81,0.00,,,0.00,,2013-01-09 15:03:00,
2013-01-09 09:12:00,31.0,26.0,-100.00,WSW,242,13.0,18.0,81,0.00,,,0.00,,2013-01-09 15:12:00,
2013-01-09 09:22:00,31.0,26.0,-100.00,WSW,242,13.0,18.0,81,0.00,,,0.00,,2013-01-09 15:22:00,
2013-01-09 09:53:00,33.0,27.0,-100.00,WSW,254,12.0,21.0,77,0.00,,,0.00,,2013-01-09 15:53:00,
2013-01-09 10:03:00,33.0,27.0,-100.00,WSW,254,12.0,21.0,77,0.00,,,0.00,,2013-01-09 16:03:00,
2013-01-09 10:12:00,33.0,27.0,-100.00,WSW,254,12.0,21.0,77,0.00,,,0.00,,2013-01-09 16:12:00,
2013-01-09 10:23:00,33.0,27.0,-100.00,WSW,254,12.0,21.0,77,0.00,,,0.00,,2013-01-09 16:23:00,
2013-01-09 10:53:00,34.0,27.0,-100.00,WSW,248,15.0,22.0,75,0.00,,,0.00,,2013-01-09 16:53:00,
2013-01-09 11:03:00,34.0,27.0,-100.00,WSW,248,15.0,22.0,75,0.00,,,0.00,,2013-01-09 17:03:00,
2013-01-09 11:12:00,34.0,27.0,-100.00,WSW,248,15.0,22.0,75,0.00,,,0.00,,2013-01-09 17:12:00,
2013-01-09 11:23:00,34.0,27.0,-100.00,WSW,248,15.0,22.0,75,0.00,,,0.00,,2013-01-09 17:23:00,
2013-01-09 11:53:00,37.0,27.0,-100.00,West,265,13.0,21.0,68,0.00,,,0.00,,2013-01-09 17:53:00,
2013-01-09 12:03:00,37.0,27.0,-100.00,West,265,13.0,21.0,68,0.00,,,0.00,,2013-01-09 18:03:00,
2013-01-09 12:12:00,37.0,27.0,-100.00,West,265,13.0,21.0,68,0.00,,,0.00,,2013-01-09 18:12:00,
2013-01-09 12:24:00,37.0,27.0,-100.00,West,265,13.0,21.0,68,0.00,,,0.00,,2013-01-09 18:24:00,
2013-01-09 12:53:00,38.0,25.0,-100.00,West,267,18.0,27.0,60,0.00,,,0.00,,2013-01-09 18:53:00,
2013-01-09 13:03:00,38.0,25.0,-100.00,West,267,18.0,27.0,60,0.00,,,0.00,,2013-01-09 19:03:00,
2013-01-09 13:13:00,38.0,25.0,-100.00,West,267,18.0,27.0,60,0.00,,,0.00,,2013-01-09 19:13:00,
2013-01-09 13:22:00,38.0,25.0,-100.00,West,267,18.0,27.0,60,0.00,,,0.00,,2013-01-09 19:22:00,
2013-01-09 13:53:00,38.0,25.0,-100.00,West,259,17.0,24.0,58,0.00,,,0.00,,2013-01-09 19:53:00,
2013-01-09 14:03:00,38.0,25.0,-100.00,West,259,17.0,24.0,58,0.00,,,0.00,,2013-01-09 20:03:00,
2013-01-09 14:12:00,38.0,25.0,-100.00,West,259,17.0,24.0,58,0.00,,,0.00,,2013-01-09 20:12:00,
2013-01-09 14:23:00,38.0,25.0,-100.00,West,259,17.0,24.0,58,0.00,,,0.00,,2013-01-09 20:23:00,
2013-01-09 14:53:00,38.0,27.0,-100.00,WSW,255,15.0,22.0,63,0.00,,,0.00,,2013-01-09 20:53:00,
2013-01-09 15:03:00,38.0,27.0,-100.00,WSW,255,15.0,22.0,63,0.00,,,0.00,,2013-01-09 21:03:00,
2013-01-09 15:13:00,38.0,27.0,-100.00,WSW,255,15.0,22.0,63,0.00,,,0.00,,2013-01-09 21:13:00,
2013-01-09 15:23:00,38.0,27.0,-100.00,WSW,255,15.0,22.0,63,0.00,,,0.00,,2013-01-09 21:23:00,
2013-01-09 15:53:00,38.0,26.0,-100.00,West,268,13.0,19.0,62,0.00,,,0.00,,2013-01-09 21:53:00,
2013-01-09 16:03:00,38.0,26.0,-100.00,West,268,13.0,19.0,62,0.00,,,0.00,,2013-01-09 22:03:00,
2013-01-09 16:12:00,38.0,26.0,-100.00,West,268,13.0,19.0,62,0.00,,,0.00,,2013-01-09 22:12:00,
2013-01-09 16:22:00,38.0,26.0,-100.00,West,268,13.0,19.0,62,0.00,,,0.00,,2013-01-09 22:22:00,
2013-01-09 16:52:00,35.0,24.0,-100.00,WNW,284,13.0,20.0,65,0.00,,,-99.99,,2013-01-09 22:52:00,
2013-01-09 17:02:00,35.0,24.0,-100.00,WNW,284,13.0,20.0,65,0.00,,,-99.99,,2013-01-09 23:02:00,
2013-01-09 17:13:00,35.0,24.0,-100.00,WNW,284,13.0,20.0,65,0.00,,,-99.99,,2013-01-09 23:13:00,
2013-01-09 17:22:00,35.0,24.0,-100.00,WNW,284,13.0,20.0,65,0.00,,,-99.99,,2013-01-09 23:22:00,
2013-01-09 17:53:00,31.0,23.0,-100.00,WNW,290,9.0,16.0,72,0.00,,,0.00,,2013-01-09 23:53:00,
2013-01-09 18:03:00,31.0,23.0,-100.00,WNW,290,9.0,16.0,72,0.00,,,0.00,,2013-01-10 00:03:00,
2013-01-09 18:12:00,31.0,23.0,-100.00,WNW,290,9.0,16.0,72,0.00,,,0.00,,2013-01-10 00:12:00,
2013-01-09 18:22:00,31.0,23.0,-100.00,WNW,290,9.0,16.0,72,0.00,,,0.00,,2013-01-10 00:22:00,
2013-01-09 18:53:00,29.0,22.0,-100.00,WNW,301,6.0,11.0,75,0.00,,,0.00,,2013-01-10 00:53:00,
2013-01-09 19:02:00,29.0,22.0,-100.00,WNW,301,6.0,11.0,75,0.00,,,0.00,,2013-01-10 01:02:00,
2013-01-09 19:12:00,29.0,22.0,-100.00,WNW,301,6.0,11.0,75,0.00,,,0.00,,2013-01-10 01:12:00,
2013-01-09 19:22:00,29.0,22.0,-100.00,WNW,301,6.0,11.0,75,0.00,,,0.00,,2013-01-10 01:22:00,
2013-01-09 19:53:00,28.0,20.0,-100.00,NNW,341,2.0,6.0,73,0.00,,,0.00,,2013-01-10 01:53:00,
2013-01-09 20:03:00,28.0,20.0,-100.00,NNW,341,2.0,6.0,73,0.00,,,0.00,,2013-01-10 02:03:00,
2013-01-09 20:12:00,28.0,20.0,-100.00,NNW,341,2.0,6.0,73,0.00,,,0.00,,2013-01-10 02:12:00,
2013-01-09 20:22:00,28.0,20.0,-100.00,NNW,341,2.0,6.0,73,0.00,,,0.00,,2013-01-10 02:22:00,
2013-01-09 21:03:00,26.0,21.0,-100.00,SSE,153,3.0,6.0,80,0.00,,,0.00,,2013-01-10 03:03:00,
2013-01-09 21:12:00,26.0,21.0,-100.00,SSE,153,3.0,6.0,80,0.00,,,0.00,,2013-01-10 03:12:00,
2013-01-09 21:22:00,26.0,21.0,-100.00,SSE,153,3.0,6.0,80,0.00,,,0.00,,2013-01-10 03:22:00,
2013-01-09 21:53:00,27.0,21.0,-100.00,SE,143,4.0,5.0,77,0.00,,,0.00,,2013-01-10 03:53:00,
2013-01-09 22:02:00,27.0,21.0,-100.00,SE,143,4.0,5.0,77,0.00,,,0.00,,2013-01-10 04:02:00,
2013-01-09 22:12:00,27.0,21.0,-100.00,SE,143,4.0,5.0,77,0.00,,,0.00,,2013-01-10 04:12:00,
2013-01-09 22:22:00,27.0,21.0,-100.00,SE,143,4.0,5.0,77,0.00,,,0.00,,2013-01-10 04:22:00,
2013-01-09 22:52:00,27.0,21.0,-100.00,East,88,3.0,5.0,77,0.00,,,0.00,,2013-01-10 04:52:00,
2013-01-09 23:03:00,27.0,21.0,-100.00,East,88,3.0,5.0,77,0.00,,,0.00,,2013-01-10 05:03:00,
2013-01-09 23:12:00,27.0,21.0,-100.00,East,88,3.0,5.0,77,0.00,,,0.00,,2013-01-10 05:12:00,
2013-01-09 23:22:00,27.0,21.0,-100.00,East,88,3.0,5.0,77,0.00,,,0.00,,2013-01-10 05:22:00,
2013-01-09 23:53:00,23.0,17.0,-100.00,NNE,23,4.0,7.0,76,0.00,,,0.00,,2013-01-10 05:53:00,